createdAt,value
2017-12-01T00:00:00.351Z,0
2017-12-01T00:01:09.245Z,0
2017-12-01T00:02:17.894Z,0
2017-12-01T00:03:27.108Z,0
2017-12-01T00:04:36.537Z,0
2017-12-01T00:05:45.967Z,0
2017-12-01T00:06:55.216Z,0
2017-12-01T00:08:04.416Z,0
2017-12-01T00:09:13.354Z,0
2017-12-01T00:10:22.776Z,0
2017-12-01T00:11:31.727Z,0
2017-12-01T00:12:40.941Z,0
2017-12-01T00:13:49.596Z,0
2017-12-01T00:14:58.258Z,0
2017-12-01T00:16:07.431Z,0
2017-12-01T00:17:16.352Z,0
2017-12-01T00:18:25.279Z,0
2017-12-01T00:19:33.928Z,0
2017-12-01T00:20:42.853Z,0
2017-12-01T00:21:51.829Z,0
2017-12-01T00:23:00.998Z,0
2017-12-01T00:24:10.173Z,0
2017-12-01T00:25:19.620Z,0
2017-12-01T00:26:28.764Z,0
2017-12-01T00:27:37.982Z,0
2017-12-01T00:28:46.943Z,0
2017-12-01T00:29:56.105Z,0
2017-12-01T00:31:05.282Z,0
2017-12-01T00:32:14.693Z,0
2017-12-01T00:33:23.861Z,0
2017-12-01T00:34:32.542Z,0
2017-12-01T00:35:41.173Z,0
2017-12-01T00:36:50.108Z,0
2017-12-01T00:37:58.778Z,0
2017-12-01T00:39:07.981Z,0
2017-12-01T00:40:16.649Z,0
2017-12-01T00:41:26.095Z,0
2017-12-01T00:42:35.021Z,0
2017-12-01T00:43:44.014Z,0
2017-12-01T00:44:53.434Z,0
2017-12-01T00:46:02.641Z,0
2017-12-01T00:47:11.557Z,0
2017-12-01T00:48:20.742Z,0
2017-12-01T00:49:30.163Z,0
2017-12-01T00:50:38.806Z,0
2017-12-01T00:51:47.718Z,0
2017-12-01T00:52:56.387Z,0
2017-12-01T00:54:05.342Z,0
2017-12-01T00:55:14.774Z,0
2017-12-01T00:56:23.689Z,0
2017-12-01T00:57:32.602Z,0
2017-12-01T00:58:41.790Z,0
2017-12-01T00:59:50.703Z,0
2017-12-01T01:00:59.916Z,0
2017-12-01T01:02:08.824Z,0
2017-12-01T01:03:18.246Z,0
2017-12-01T01:04:27.186Z,0
2017-12-01T01:05:36.358Z,0
2017-12-01T01:06:45.253Z,0
2017-12-01T01:07:54.455Z,0
2017-12-01T01:09:03.619Z,0
2017-12-01T01:10:12.549Z,0
2017-12-01T01:11:21.504Z,0
2017-12-01T01:12:30.936Z,0
2017-12-01T01:13:39.863Z,0
2017-12-01T01:14:49.037Z,0
2017-12-01T01:15:58.201Z,0
2017-12-01T01:17:07.871Z,0
2017-12-01T01:18:17.048Z,0
2017-12-01T01:19:26.214Z,0
2017-12-01T01:20:35.647Z,0
2017-12-01T01:21:44.587Z,0
2017-12-01T01:22:53.252Z,0
2017-12-01T01:24:02.451Z,0
2017-12-01T01:25:11.888Z,0
2017-12-01T01:26:21.085Z,0
2017-12-01T01:27:29.716Z,0
2017-12-01T01:28:38.889Z,0
2017-12-01T01:29:47.808Z,0
2017-12-01T01:30:56.464Z,0
2017-12-01T01:32:05.892Z,0
2017-12-01T01:33:14.811Z,0
2017-12-01T01:34:24.813Z,0
2017-12-01T01:35:33.720Z,0
2017-12-01T01:36:43.162Z,0
2017-12-01T01:37:52.312Z,0
2017-12-01T01:39:01.490Z,0
2017-12-01T01:40:10.669Z,0
2017-12-01T01:41:20.131Z,0
2017-12-01T01:42:29.102Z,0
2017-12-01T01:43:38.292Z,0
2017-12-01T01:44:47.728Z,0
2017-12-01T01:45:56.907Z,0
2017-12-01T01:47:06.332Z,0
2017-12-01T01:48:15.783Z,0
2017-12-01T01:49:25.256Z,0
2017-12-01T01:50:34.435Z,0
2017-12-01T01:51:43.139Z,0
2017-12-01T01:52:52.306Z,0
2017-12-01T01:54:01.205Z,0
2017-12-01T01:55:10.373Z,0
2017-12-01T01:56:19.542Z,0
2017-12-01T01:57:29.056Z,0
2017-12-01T01:58:38.238Z,0
2017-12-01T01:59:46.886Z,0
2017-12-01T02:00:55.632Z,0
2017-12-01T02:02:04.800Z,0
2017-12-01T02:03:13.969Z,0
2017-12-01T02:04:23.137Z,0
2017-12-01T02:05:32.821Z,0
2017-12-01T02:06:41.715Z,0
2017-12-01T02:07:51.134Z,0
2017-12-01T02:09:00.853Z,0
2017-12-01T02:10:10.294Z,0
2017-12-01T02:11:19.246Z,0
2017-12-01T02:12:27.853Z,0
2017-12-01T02:13:37.021Z,0
2017-12-01T02:14:46.181Z,0
2017-12-01T02:15:55.603Z,0
2017-12-01T02:17:04.300Z,0
2017-12-01T02:18:13.469Z,0
2017-12-01T02:19:22.625Z,0
2017-12-01T02:20:31.283Z,0
2017-12-01T02:21:40.449Z,0
2017-12-01T02:22:49.403Z,0
2017-12-01T02:23:58.049Z,0
2017-12-01T02:25:07.219Z,0
2017-12-01T02:26:16.384Z,0
2017-12-01T02:27:25.033Z,0
2017-12-01T02:28:33.951Z,0
2017-12-01T02:29:42.660Z,0
2017-12-01T02:30:52.086Z,0
2017-12-01T02:32:01.537Z,0
2017-12-01T02:33:10.979Z,0
2017-12-01T02:34:20.187Z,0
2017-12-01T02:35:29.102Z,0
2017-12-01T02:36:38.284Z,0
2017-12-01T02:37:47.717Z,0
2017-12-01T02:38:56.888Z,0
2017-12-01T02:40:06.062Z,0
2017-12-01T02:41:15.524Z,0
2017-12-01T02:42:25.240Z,0
2017-12-01T02:43:34.430Z,0
2017-12-01T02:44:43.875Z,0
2017-12-01T02:45:52.779Z,0
2017-12-01T02:47:01.952Z,0
2017-12-01T02:48:11.382Z,0
2017-12-01T02:49:20.289Z,0
2017-12-01T02:50:29.452Z,0
2017-12-01T02:51:38.120Z,0
2017-12-01T02:52:47.571Z,0
2017-12-01T02:53:56.750Z,0
2017-12-01T02:55:05.716Z,0
2017-12-01T02:56:14.916Z,0
2017-12-01T02:57:24.110Z,0
2017-12-01T02:58:33.018Z,0
2017-12-01T02:59:41.672Z,0
2017-12-01T03:00:50.341Z,0
2017-12-01T03:01:59.768Z,0
2017-12-01T03:03:09.228Z,0
2017-12-01T03:04:18.644Z,0
2017-12-01T03:05:27.587Z,0
2017-12-01T03:06:37.280Z,0
2017-12-01T03:07:46.741Z,0
2017-12-01T03:08:55.889Z,0
2017-12-01T03:10:05.070Z,0
2017-12-01T03:11:14.764Z,0
2017-12-01T03:12:23.680Z,0
2017-12-01T03:13:32.377Z,0
2017-12-01T03:14:41.584Z,0
2017-12-01T03:15:50.767Z,0
2017-12-01T03:16:59.925Z,0
2017-12-01T03:18:09.094Z,0
2017-12-01T03:19:18.272Z,0
2017-12-01T03:20:26.949Z,0
2017-12-01T03:21:36.378Z,0
2017-12-01T03:22:45.286Z,0
2017-12-01T03:23:54.473Z,0
2017-12-01T03:25:04.409Z,0
2017-12-01T03:26:13.866Z,0
2017-12-01T03:27:23.043Z,0
2017-12-01T03:28:31.688Z,0
2017-12-01T03:29:41.104Z,0
2017-12-01T03:30:50.016Z,0
2017-12-01T03:31:58.922Z,0
2017-12-01T03:33:08.114Z,0
2017-12-01T03:34:17.281Z,0
2017-12-01T03:35:26.992Z,0
2017-12-01T03:36:36.459Z,0
2017-12-01T03:37:45.637Z,0
2017-12-01T03:38:54.306Z,0
2017-12-01T03:40:03.465Z,0
2017-12-01T03:41:12.616Z,0
2017-12-01T03:42:21.534Z,0
2017-12-01T03:43:30.192Z,0
2017-12-01T03:44:39.371Z,0
2017-12-01T03:45:48.011Z,0
2017-12-01T03:46:57.245Z,0
2017-12-01T03:48:05.899Z,0
2017-12-01T03:49:15.076Z,0
2017-12-01T03:50:24.045Z,0
2017-12-01T03:51:33.473Z,0
2017-12-01T03:52:42.120Z,0
2017-12-01T03:53:51.546Z,0
2017-12-01T03:55:00.453Z,0
2017-12-01T03:56:09.637Z,0
2017-12-01T03:57:19.315Z,0
2017-12-01T03:58:28.278Z,0
2017-12-01T03:59:37.222Z,0
2017-12-01T04:00:46.414Z,0
2017-12-01T04:01:55.569Z,0
2017-12-01T04:03:04.768Z,0
2017-12-01T04:04:14.197Z,0
2017-12-01T04:05:22.875Z,0
2017-12-01T04:06:32.070Z,0
2017-12-01T04:07:41.515Z,0
2017-12-01T04:08:50.162Z,0
2017-12-01T04:09:58.812Z,0
2017-12-01T04:11:07.713Z,0
2017-12-01T04:12:16.355Z,0
2017-12-01T04:13:25.011Z,0
2017-12-01T04:14:33.676Z,0
2017-12-01T04:15:43.102Z,0
2017-12-01T04:16:52.268Z,0
2017-12-01T04:18:01.169Z,0
2017-12-01T04:19:10.073Z,0
2017-12-01T04:20:19.287Z,0
2017-12-01T04:21:28.460Z,0
2017-12-01T04:22:37.888Z,0
2017-12-01T04:23:46.561Z,0
2017-12-01T04:24:55.711Z,0
2017-12-01T04:26:04.902Z,0
2017-12-01T04:27:14.064Z,0
2017-12-01T04:28:23.246Z,0
2017-12-01T04:29:32.214Z,0
2017-12-01T04:30:41.105Z,0
2017-12-01T04:31:50.036Z,0
2017-12-01T04:32:59.560Z,0
2017-12-01T04:34:09.267Z,0
2017-12-01T04:35:17.970Z,0
2017-12-01T04:36:26.893Z,0
2017-12-01T04:37:35.802Z,0
2017-12-01T04:38:44.694Z,0
2017-12-01T04:39:53.891Z,0
2017-12-01T04:41:02.812Z,0
2017-12-01T04:42:12.251Z,0
2017-12-01T04:43:21.410Z,0
2017-12-01T04:44:30.319Z,0
2017-12-01T04:45:39.265Z,0
2017-12-01T04:46:48.176Z,0
2017-12-01T04:47:57.353Z,0
2017-12-01T04:49:06.274Z,0
2017-12-01T04:50:14.925Z,0
2017-12-01T04:51:23.850Z,0
2017-12-01T04:52:33.036Z,0
2017-12-01T04:53:41.949Z,0
2017-12-01T04:54:51.373Z,0
2017-12-01T04:56:00.819Z,0
2017-12-01T04:57:09.740Z,0
2017-12-01T04:58:18.663Z,0
2017-12-01T04:59:27.565Z,0
2017-12-01T05:00:36.746Z,0
2017-12-01T05:01:46.190Z,0
2017-12-01T05:02:55.600Z,0
2017-12-01T05:04:04.512Z,0
2017-12-01T05:05:13.933Z,0
2017-12-01T05:06:23.343Z,0
2017-12-01T05:07:32.252Z,0
2017-12-01T05:08:41.417Z,0
2017-12-01T05:09:50.562Z,0
2017-12-01T05:10:59.731Z,0
2017-12-01T05:12:08.647Z,0
2017-12-01T05:13:17.324Z,0
2017-12-01T05:14:25.987Z,0
2017-12-01T05:15:34.916Z,0
2017-12-01T05:16:43.816Z,0
2017-12-01T05:17:52.714Z,0
2017-12-01T05:19:01.889Z,0
2017-12-01T05:20:10.786Z,0
2017-12-01T05:21:19.695Z,0
2017-12-01T05:22:28.602Z,0
2017-12-01T05:23:37.763Z,0
2017-12-01T05:24:46.693Z,0
2017-12-01T05:25:55.329Z,0
2017-12-01T05:27:04.740Z,0
2017-12-01T05:28:14.490Z,0
2017-12-01T05:29:23.672Z,0
2017-12-01T05:30:32.593Z,0
2017-12-01T05:31:41.750Z,0
2017-12-01T05:32:50.903Z,0
2017-12-01T05:33:59.827Z,0
2017-12-01T05:35:08.732Z,0
2017-12-01T05:36:17.891Z,0
2017-12-01T05:37:27.060Z,0
2017-12-01T05:38:35.712Z,0
2017-12-01T05:39:44.628Z,0
2017-12-01T05:40:54.044Z,0
2017-12-01T05:42:02.954Z,0
2017-12-01T05:43:12.395Z,0
2017-12-01T05:44:21.318Z,0
2017-12-01T05:45:30.502Z,0
2017-12-01T05:46:39.145Z,0
2017-12-01T05:47:48.380Z,0
2017-12-01T05:48:57.029Z,0
2017-12-01T05:50:05.960Z,0
2017-12-01T05:51:15.143Z,0
2017-12-01T05:52:24.333Z,0
2017-12-01T05:53:32.991Z,0
2017-12-01T05:54:41.898Z,0
2017-12-01T05:55:51.054Z,0
2017-12-01T05:57:00.220Z,0
2017-12-01T05:58:09.166Z,0
2017-12-01T05:59:18.088Z,0
2017-12-01T06:00:26.739Z,0
2017-12-01T06:01:35.650Z,0
2017-12-01T06:02:44.874Z,0
2017-12-01T06:03:54.339Z,0
2017-12-01T06:05:03.547Z,0
2017-12-01T06:06:12.964Z,0
2017-12-01T06:07:22.178Z,0
2017-12-01T06:08:31.649Z,0
2017-12-01T06:09:40.896Z,0
2017-12-01T06:10:50.073Z,0
2017-12-01T06:11:59.295Z,0
2017-12-01T06:13:08.192Z,0
2017-12-01T06:14:17.353Z,4
2017-12-01T06:15:26.547Z,8
2017-12-01T06:16:35.736Z,4
2017-12-01T06:17:44.671Z,4
2017-12-01T06:18:53.316Z,4
2017-12-01T06:20:02.487Z,8
2017-12-01T06:21:11.933Z,4
2017-12-01T06:22:21.112Z,8
2017-12-01T06:23:30.059Z,8
2017-12-01T06:24:39.043Z,4
2017-12-01T06:25:48.000Z,4
2017-12-01T06:26:56.745Z,4
2017-12-01T06:28:05.675Z,4
2017-12-01T06:29:14.610Z,4
2017-12-01T06:30:24.297Z,4
2017-12-01T06:31:33.750Z,4
2017-12-01T06:32:43.174Z,4
2017-12-01T06:33:52.091Z,4
2017-12-01T06:35:01.534Z,4
2017-12-01T06:36:11.278Z,4
2017-12-01T06:37:20.703Z,4
2017-12-01T06:38:30.140Z,4
2017-12-01T06:39:39.342Z,4
2017-12-01T06:40:48.752Z,4
2017-12-01T06:41:57.930Z,4
2017-12-01T06:43:06.600Z,8
2017-12-01T06:44:15.526Z,8
2017-12-01T06:45:24.442Z,8
2017-12-01T06:46:34.142Z,8
2017-12-01T06:47:43.843Z,4
2017-12-01T06:48:52.541Z,8
2017-12-01T06:50:01.482Z,8
2017-12-01T06:51:10.641Z,8
2017-12-01T06:52:19.563Z,0
2017-12-01T06:53:28.507Z,4
2017-12-01T06:54:37.687Z,4
2017-12-01T06:55:47.295Z,4
2017-12-01T06:56:56.469Z,8
2017-12-01T06:58:05.896Z,4
2017-12-01T06:59:15.067Z,4
2017-12-01T07:00:24.298Z,8
2017-12-01T07:01:33.758Z,8
2017-12-01T07:02:42.943Z,12
2017-12-01T07:03:51.957Z,12
2017-12-01T07:05:00.875Z,12
2017-12-01T07:06:10.315Z,16
2017-12-01T07:07:19.469Z,12
2017-12-01T07:08:28.900Z,16
2017-12-01T07:09:38.081Z,20
2017-12-01T07:10:47.584Z,20
2017-12-01T07:11:56.769Z,20
2017-12-01T07:13:05.928Z,20
2017-12-01T07:14:14.847Z,16
2017-12-01T07:15:24.347Z,16
2017-12-01T07:16:33.268Z,20
2017-12-01T07:17:42.500Z,16
2017-12-01T07:18:51.424Z,16
2017-12-01T07:20:00.054Z,20
2017-12-01T07:21:10.033Z,24
2017-12-01T07:22:19.511Z,20
2017-12-01T07:23:29.214Z,20
2017-12-01T07:24:39.066Z,24
2017-12-01T07:25:48.305Z,24
2017-12-01T07:26:57.225Z,28
2017-12-01T07:28:05.869Z,32
2017-12-01T07:29:14.782Z,28
2017-12-01T07:30:23.769Z,32
2017-12-01T07:31:33.214Z,32
2017-12-01T07:32:42.420Z,36
2017-12-01T07:33:51.630Z,40
2017-12-01T07:35:01.346Z,44
2017-12-01T07:36:10.779Z,48
2017-12-01T07:37:19.692Z,44
2017-12-01T07:38:28.867Z,48
2017-12-01T07:39:37.780Z,48
2017-12-01T07:40:46.434Z,52
2017-12-01T07:41:55.369Z,60
2017-12-01T07:43:04.063Z,64
2017-12-01T07:44:13.253Z,64
2017-12-01T07:45:22.154Z,72
2017-12-01T07:46:31.084Z,76
2017-12-01T07:47:40.250Z,76
2017-12-01T07:48:49.721Z,92
2017-12-01T07:49:59.179Z,108
2017-12-01T07:51:08.615Z,120
2017-12-01T07:52:17.533Z,132
2017-12-01T07:53:26.202Z,128
2017-12-01T07:54:35.635Z,128
2017-12-01T07:55:44.560Z,124
2017-12-01T07:56:53.976Z,120
2017-12-01T07:58:02.881Z,120
2017-12-01T07:59:12.319Z,124
2017-12-01T08:00:21.790Z,128
2017-12-01T08:01:31.138Z,136
2017-12-01T08:02:40.581Z,156
2017-12-01T08:03:50.522Z,168
2017-12-01T08:04:59.722Z,164
2017-12-01T08:06:09.189Z,156
2017-12-01T08:07:18.617Z,156
2017-12-01T08:08:27.279Z,156
2017-12-01T08:09:36.448Z,152
2017-12-01T08:10:45.107Z,152
2017-12-01T08:11:53.814Z,156
2017-12-01T08:13:02.754Z,168
2017-12-01T08:14:11.937Z,180
2017-12-01T08:15:21.123Z,172
2017-12-01T08:16:30.571Z,172
2017-12-01T08:17:40.021Z,172
2017-12-01T08:18:48.948Z,184
2017-12-01T08:19:58.173Z,184
2017-12-01T08:21:07.440Z,196
2017-12-01T08:22:16.641Z,204
2017-12-01T08:23:25.581Z,200
2017-12-01T08:24:34.270Z,196
2017-12-01T08:25:42.932Z,192
2017-12-01T08:26:52.389Z,200
2017-12-01T08:28:01.592Z,216
2017-12-01T08:29:10.511Z,232
2017-12-01T08:30:19.449Z,264
2017-12-01T08:31:28.883Z,276
2017-12-01T08:32:38.079Z,296
2017-12-01T08:33:47.030Z,348
2017-12-01T08:34:55.678Z,372
2017-12-01T08:36:05.114Z,392
2017-12-01T08:37:14.633Z,420
2017-12-01T08:38:23.833Z,444
2017-12-01T08:39:32.762Z,468
2017-12-01T08:40:41.683Z,532
2017-12-01T08:41:50.888Z,564
2017-12-01T08:42:59.579Z,580
2017-12-01T08:44:08.253Z,592
2017-12-01T08:45:17.442Z,596
2017-12-01T08:46:26.364Z,592
2017-12-01T08:47:35.578Z,584
2017-12-01T08:48:45.008Z,576
2017-12-01T08:49:54.187Z,580
2017-12-01T08:51:03.110Z,572
2017-12-01T08:52:12.282Z,548
2017-12-01T08:53:21.225Z,524
2017-12-01T08:54:30.690Z,516
2017-12-01T08:55:39.857Z,536
2017-12-01T08:56:49.046Z,556
2017-12-01T08:57:58.219Z,592
2017-12-01T08:59:07.704Z,608
2017-12-01T09:00:16.886Z,616
2017-12-01T09:01:26.073Z,604
2017-12-01T09:02:35.518Z,568
2017-12-01T09:03:44.497Z,548
2017-12-01T09:04:53.664Z,536
2017-12-01T09:06:02.601Z,528
2017-12-01T09:07:11.835Z,532
2017-12-01T09:08:21.300Z,544
2017-12-01T09:09:30.731Z,556
2017-12-01T09:10:39.918Z,584
2017-12-01T09:11:48.849Z,608
2017-12-01T09:12:58.258Z,612
2017-12-01T09:14:07.710Z,572
2017-12-01T09:15:16.889Z,556
2017-12-01T09:16:25.581Z,596
2017-12-01T09:17:34.271Z,636
2017-12-01T09:18:43.451Z,704
2017-12-01T09:19:53.121Z,732
2017-12-01T09:21:02.326Z,732
2017-12-01T09:22:11.783Z,764
2017-12-01T09:23:21.224Z,780
2017-12-01T09:24:29.881Z,780
2017-12-01T09:25:39.591Z,776
2017-12-01T09:26:48.506Z,784
2017-12-01T09:27:57.702Z,796
2017-12-01T09:29:06.597Z,804
2017-12-01T09:30:15.264Z,796
2017-12-01T09:31:24.471Z,808
2017-12-01T09:32:33.128Z,844
2017-12-01T09:33:42.030Z,756
2017-12-01T09:34:51.185Z,760
2017-12-01T09:36:00.606Z,800
2017-12-01T09:37:09.502Z,868
2017-12-01T09:38:18.720Z,840
2017-12-01T09:39:27.899Z,808
2017-12-01T09:40:37.065Z,808
2017-12-01T09:41:46.001Z,784
2017-12-01T09:42:55.158Z,760
2017-12-01T09:44:04.599Z,780
2017-12-01T09:45:13.250Z,804
2017-12-01T09:46:22.445Z,800
2017-12-01T09:47:31.638Z,804
2017-12-01T09:48:41.069Z,784
2017-12-01T09:49:50.487Z,816
2017-12-01T09:50:59.408Z,808
2017-12-01T09:52:08.578Z,764
2017-12-01T09:53:17.224Z,736
2017-12-01T09:54:26.656Z,724
2017-12-01T09:55:36.168Z,688
2017-12-01T09:56:45.525Z,676
2017-12-01T09:57:54.691Z,652
2017-12-01T09:59:03.613Z,644
2017-12-01T10:00:12.782Z,656
2017-12-01T10:01:21.737Z,668
2017-12-01T10:02:30.663Z,704
2017-12-01T10:03:40.118Z,764
2017-12-01T10:04:49.571Z,856
2017-12-01T10:05:58.751Z,968
2017-12-01T10:07:07.941Z,856
2017-12-01T10:08:17.147Z,844
2017-12-01T10:09:26.337Z,952
2017-12-01T10:10:35.275Z,1100
2017-12-01T10:11:43.967Z,1136
2017-12-01T10:12:52.660Z,1220
2017-12-01T10:14:01.580Z,1364
2017-12-01T10:15:10.783Z,1408
2017-12-01T10:16:19.979Z,1332
2017-12-01T10:17:28.635Z,1320
2017-12-01T10:18:38.061Z,1220
2017-12-01T10:19:47.288Z,1076
2017-12-01T10:20:56.198Z,804
2017-12-01T10:22:05.366Z,760
2017-12-01T10:23:14.291Z,700
2017-12-01T10:24:23.471Z,776
2017-12-01T10:25:32.387Z,888
2017-12-01T10:26:41.547Z,884
2017-12-01T10:27:50.465Z,920
2017-12-01T10:28:59.140Z,1156
2017-12-01T10:30:08.588Z,1404
2017-12-01T10:31:18.009Z,1504
2017-12-01T10:32:26.661Z,1632
2017-12-01T10:33:35.862Z,1520
2017-12-01T10:34:45.290Z,1448
2017-12-01T10:35:54.457Z,1440
2017-12-01T10:37:04.166Z,1356
2017-12-01T10:38:12.827Z,1344
2017-12-01T10:39:21.771Z,1288
2017-12-01T10:40:30.672Z,1232
2017-12-01T10:41:39.563Z,1176
2017-12-01T10:42:48.995Z,1136
2017-12-01T10:43:58.449Z,1080
2017-12-01T10:45:07.354Z,1048
2017-12-01T10:46:16.533Z,1036
2017-12-01T10:47:25.717Z,1028
2017-12-01T10:48:35.149Z,1044
2017-12-01T10:49:43.798Z,1120
2017-12-01T10:50:52.700Z,1128
2017-12-01T10:52:01.870Z,1088
2017-12-01T10:53:11.349Z,1136
2017-12-01T10:54:21.017Z,1212
2017-12-01T10:55:30.197Z,1204
2017-12-01T10:56:39.650Z,1188
2017-12-01T10:57:48.813Z,1156
2017-12-01T10:58:58.009Z,1092
2017-12-01T11:00:07.508Z,1004
2017-12-01T11:01:16.422Z,964
2017-12-01T11:02:25.347Z,928
2017-12-01T11:03:34.798Z,884
2017-12-01T11:04:43.710Z,788
2017-12-01T11:05:53.158Z,640
2017-12-01T11:07:01.810Z,512
2017-12-01T11:08:10.991Z,436
2017-12-01T11:09:19.660Z,428
2017-12-01T11:10:28.624Z,400
2017-12-01T11:11:38.053Z,364
2017-12-01T11:12:47.736Z,340
2017-12-01T11:13:56.665Z,328
2017-12-01T11:15:05.864Z,324
2017-12-01T11:16:15.054Z,312
2017-12-01T11:17:24.225Z,348
2017-12-01T11:18:33.154Z,408
2017-12-01T11:19:42.354Z,388
2017-12-01T11:20:51.839Z,348
2017-12-01T11:22:01.024Z,328
2017-12-01T11:23:09.953Z,320
2017-12-01T11:24:19.163Z,328
2017-12-01T11:25:27.816Z,316
2017-12-01T11:26:37.026Z,312
2017-12-01T11:27:45.937Z,352
2017-12-01T11:28:54.611Z,448
2017-12-01T11:30:03.285Z,524
2017-12-01T11:31:12.769Z,560
2017-12-01T11:32:21.946Z,496
2017-12-01T11:33:31.667Z,444
2017-12-01T11:34:40.317Z,440
2017-12-01T11:35:49.525Z,532
2017-12-01T11:36:58.709Z,604
2017-12-01T11:38:07.616Z,632
2017-12-01T11:39:16.534Z,620
2017-12-01T11:40:26.217Z,632
2017-12-01T11:41:35.400Z,604
2017-12-01T11:42:44.075Z,600
2017-12-01T11:43:53.558Z,636
2017-12-01T11:45:02.744Z,644
2017-12-01T11:46:11.914Z,636
2017-12-01T11:47:21.344Z,648
2017-12-01T11:48:30.552Z,644
2017-12-01T11:49:39.235Z,652
2017-12-01T11:50:48.392Z,688
2017-12-01T11:51:57.325Z,720
2017-12-01T11:53:06.753Z,796
2017-12-01T11:54:16.175Z,880
2017-12-01T11:55:25.081Z,936
2017-12-01T11:56:33.732Z,972
2017-12-01T11:57:42.664Z,1036
2017-12-01T11:58:51.820Z,996
2017-12-01T12:00:01.533Z,948
2017-12-01T12:01:10.948Z,884
2017-12-01T12:02:19.601Z,880
2017-12-01T12:03:28.773Z,912
2017-12-01T12:04:37.423Z,948
2017-12-01T12:05:46.077Z,892
2017-12-01T12:06:54.991Z,884
2017-12-01T12:08:03.924Z,904
2017-12-01T12:09:13.087Z,928
2017-12-01T12:10:22.018Z,936
2017-12-01T12:11:31.445Z,972
2017-12-01T12:12:40.079Z,992
2017-12-01T12:13:48.727Z,1020
2017-12-01T12:14:57.622Z,1064
2017-12-01T12:16:06.807Z,1056
2017-12-01T12:17:15.452Z,1076
2017-12-01T12:18:24.373Z,1092
2017-12-01T12:19:33.552Z,1096
2017-12-01T12:20:42.718Z,1104
2017-12-01T12:21:51.871Z,1136
2017-12-01T12:23:00.776Z,1092
2017-12-01T12:24:09.699Z,1076
2017-12-01T12:25:18.599Z,1088
2017-12-01T12:26:28.029Z,1096
2017-12-01T12:27:36.961Z,1088
2017-12-01T12:28:46.128Z,1060
2017-12-01T12:29:55.307Z,1036
2017-12-01T12:31:04.224Z,1016
2017-12-01T12:32:13.649Z,1016
2017-12-01T12:33:22.568Z,1008
2017-12-01T12:34:31.484Z,996
2017-12-01T12:35:40.678Z,980
2017-12-01T12:36:49.584Z,984
2017-12-01T12:37:58.222Z,992
2017-12-01T12:39:07.678Z,988
2017-12-01T12:40:16.593Z,988
2017-12-01T12:41:25.758Z,988
2017-12-01T12:42:34.443Z,976
2017-12-01T12:43:43.611Z,956
2017-12-01T12:44:52.519Z,936
2017-12-01T12:46:01.687Z,884
2017-12-01T12:47:10.859Z,812
2017-12-01T12:48:19.777Z,692
2017-12-01T12:49:29.189Z,656
2017-12-01T12:50:37.850Z,660
2017-12-01T12:51:47.055Z,728
2017-12-01T12:52:56.240Z,756
2017-12-01T12:54:04.923Z,784
2017-12-01T12:55:13.846Z,812
2017-12-01T12:56:23.010Z,848
2017-12-01T12:57:32.451Z,856
2017-12-01T12:58:41.619Z,856
2017-12-01T12:59:51.286Z,860
2017-12-01T13:01:00.714Z,856
2017-12-01T13:02:09.942Z,832
2017-12-01T13:03:19.103Z,816
2017-12-01T13:04:28.563Z,816
2017-12-01T13:05:37.755Z,836
2017-12-01T13:06:46.930Z,880
2017-12-01T13:07:55.837Z,936
2017-12-01T13:09:04.741Z,992
2017-12-01T13:10:13.891Z,980
2017-12-01T13:11:23.075Z,920
2017-12-01T13:12:31.995Z,848
2017-12-01T13:13:40.908Z,808
2017-12-01T13:14:49.839Z,792
2017-12-01T13:15:59.009Z,788
2017-12-01T13:17:08.193Z,784
2017-12-01T13:18:17.384Z,768
2017-12-01T13:19:26.577Z,752
2017-12-01T13:20:35.486Z,744
2017-12-01T13:21:44.662Z,732
2017-12-01T13:22:54.084Z,720
2017-12-01T13:24:02.747Z,708
2017-12-01T13:25:12.199Z,704
2017-12-01T13:26:20.855Z,712
2017-12-01T13:27:29.791Z,708
2017-12-01T13:28:38.488Z,708
2017-12-01T13:29:47.677Z,712
2017-12-01T13:30:56.652Z,720
2017-12-01T13:32:06.084Z,724
2017-12-01T13:33:15.029Z,728
2017-12-01T13:34:24.198Z,736
2017-12-01T13:35:33.618Z,748
2017-12-01T13:36:43.097Z,764
2017-12-01T13:37:52.024Z,788
2017-12-01T13:39:00.921Z,816
2017-12-01T13:40:10.109Z,824
2017-12-01T13:41:18.757Z,840
2017-12-01T13:42:27.931Z,856
2017-12-01T13:43:36.846Z,872
2017-12-01T13:44:46.525Z,884
2017-12-01T13:45:55.438Z,888
2017-12-01T13:47:04.607Z,872
2017-12-01T13:48:13.789Z,856
2017-12-01T13:49:22.717Z,812
2017-12-01T13:50:32.196Z,796
2017-12-01T13:51:41.355Z,748
2017-12-01T13:52:50.275Z,728
2017-12-01T13:53:59.193Z,724
2017-12-01T13:55:08.104Z,720
2017-12-01T13:56:17.052Z,740
2017-12-01T13:57:25.978Z,772
2017-12-01T13:58:34.886Z,720
2017-12-01T13:59:44.079Z,632
2017-12-01T14:00:53.241Z,552
2017-12-01T14:02:02.409Z,516
2017-12-01T14:03:12.358Z,532
2017-12-01T14:04:21.525Z,504
2017-12-01T14:05:30.680Z,480
2017-12-01T14:06:39.676Z,444
2017-12-01T14:07:48.610Z,364
2017-12-01T14:08:57.787Z,352
2017-12-01T14:10:06.443Z,420
2017-12-01T14:11:15.346Z,448
2017-12-01T14:12:24.784Z,452
2017-12-01T14:13:33.684Z,468
2017-12-01T14:14:42.866Z,496
2017-12-01T14:15:52.317Z,480
2017-12-01T14:17:01.990Z,452
2017-12-01T14:18:11.685Z,440
2017-12-01T14:19:21.049Z,420
2017-12-01T14:20:29.951Z,404
2017-12-01T14:21:39.129Z,400
2017-12-01T14:22:48.284Z,384
2017-12-01T14:23:57.455Z,356
2017-12-01T14:25:06.894Z,324
2017-12-01T14:26:15.794Z,280
2017-12-01T14:27:25.017Z,232
2017-12-01T14:28:34.174Z,224
2017-12-01T14:29:43.099Z,220
2017-12-01T14:30:52.026Z,212
2017-12-01T14:32:01.707Z,212
2017-12-01T14:33:11.663Z,224
2017-12-01T14:34:20.845Z,216
2017-12-01T14:35:30.013Z,200
2017-12-01T14:36:38.916Z,192
2017-12-01T14:37:48.079Z,192
2017-12-01T14:38:57.235Z,184
2017-12-01T14:40:05.892Z,172
2017-12-01T14:41:15.578Z,176
2017-12-01T14:42:25.009Z,184
2017-12-01T14:43:34.215Z,180
2017-12-01T14:44:43.115Z,172
2017-12-01T14:45:52.623Z,172
2017-12-01T14:47:01.531Z,164
2017-12-01T14:48:10.448Z,168
2017-12-01T14:49:19.368Z,164
2017-12-01T14:50:28.587Z,172
2017-12-01T14:51:37.838Z,168
2017-12-01T14:52:46.752Z,160
2017-12-01T14:53:56.430Z,156
2017-12-01T14:55:05.091Z,148
2017-12-01T14:56:14.267Z,140
2017-12-01T14:57:23.430Z,132
2017-12-01T14:58:32.614Z,124
2017-12-01T14:59:41.772Z,116
2017-12-01T15:00:50.417Z,108
2017-12-01T15:01:59.861Z,104
2017-12-01T15:03:08.532Z,104
2017-12-01T15:04:17.699Z,100
2017-12-01T15:05:26.859Z,96
2017-12-01T15:06:35.771Z,92
2017-12-01T15:07:45.205Z,88
2017-12-01T15:08:54.193Z,84
2017-12-01T15:10:03.113Z,80
2017-12-01T15:11:12.803Z,80
2017-12-01T15:12:21.711Z,76
2017-12-01T15:13:30.616Z,72
2017-12-01T15:14:40.126Z,72
2017-12-01T15:15:49.296Z,68
2017-12-01T15:16:58.000Z,64
2017-12-01T15:18:07.206Z,60
2017-12-01T15:19:16.103Z,56
2017-12-01T15:20:25.549Z,52
2017-12-01T15:21:35.271Z,44
2017-12-01T15:22:44.218Z,40
2017-12-01T15:23:53.898Z,36
2017-12-01T15:25:03.057Z,36
2017-12-01T15:26:12.507Z,32
2017-12-01T15:27:21.173Z,28
2017-12-01T15:28:30.074Z,24
2017-12-01T15:29:39.000Z,20
2017-12-01T15:30:48.428Z,20
2017-12-01T15:31:57.865Z,20
2017-12-01T15:33:07.291Z,16
2017-12-01T15:34:16.454Z,16
2017-12-01T15:35:25.624Z,12
2017-12-01T15:36:34.535Z,8
2017-12-01T15:37:43.970Z,8
2017-12-01T15:38:53.166Z,8
2017-12-01T15:40:02.089Z,8
2017-12-01T15:41:11.284Z,4
2017-12-01T15:42:20.221Z,4
2017-12-01T15:43:29.151Z,4
2017-12-01T15:44:38.062Z,4
2017-12-01T15:45:47.229Z,0
2017-12-01T15:46:56.384Z,4
2017-12-01T15:48:05.615Z,4
2017-12-01T15:49:14.775Z,0
2017-12-01T15:50:23.425Z,0
2017-12-01T15:51:32.067Z,0
2017-12-01T15:52:41.238Z,0
2017-12-01T15:53:50.163Z,0
2017-12-01T15:54:59.589Z,0
2017-12-01T15:56:08.232Z,0
2017-12-01T15:57:16.894Z,0
2017-12-01T15:58:26.320Z,0
2017-12-01T15:59:35.744Z,0
2017-12-01T16:00:44.899Z,0
2017-12-01T16:01:54.136Z,0
2017-12-01T16:03:03.304Z,0
2017-12-01T16:04:12.476Z,0
2017-12-01T16:05:21.660Z,0
2017-12-01T16:06:30.316Z,0
2017-12-01T16:07:39.256Z,0
2017-12-01T16:08:48.414Z,0
2017-12-01T16:09:57.595Z,0
2017-12-01T16:11:06.546Z,0
2017-12-01T16:12:15.716Z,0
2017-12-01T16:13:24.382Z,0
2017-12-01T16:14:33.537Z,0
2017-12-01T16:15:42.440Z,0
2017-12-01T16:16:51.604Z,0
2017-12-01T16:18:01.050Z,0
2017-12-01T16:19:09.962Z,0
2017-12-01T16:20:19.138Z,0
2017-12-01T16:21:27.803Z,0
2017-12-01T16:22:37.221Z,0
2017-12-01T16:23:46.646Z,0